METAR Data
IDs: Format: Raw Decoded Include TAF

Data at: 1951 UTC 15 Oct 2018

KF00 151935Z AUTO 36011G17KT 10SM -RA OVC009 05/04 A3028 RMK AO2 P0002 T00470043
KF00 151915Z AUTO 36009G15KT 7SM -RA OVC007 05/04 A3027 RMK AO2 P0001 T00460043
KF00 151855Z AUTO 35009G17KT 7SM RA OVC009 04/04 A3028 RMK AO2 P0008 T00440040
KF00 151835Z AUTO 35010KT 7SM RA OVC009 05/04 A3030 RMK AO2 P0005 T00460042
KF00 151815Z AUTO 35011G21KT 7SM RA OVC009 04/04 A3031 RMK AO2 P0003 T00430039
KF00 151755Z AUTO 35012G17KT 7SM RA OVC007 04/04 A3031 RMK AO2 P0009 T00420038 10042 20038 60039
KF00 151735Z AUTO 36011G17KT 7SM RA BR OVC009 04/04 A3029 RMK AO2 P0007 T00420038
KF00 151715Z AUTO 35012G21KT 5SM RA BR OVC009 04/04 A3031 RMK AO2 P0004 T00400036
KF00 151655Z AUTO 35006KT 7SM RA BR OVC009 04/04 A3032 RMK AO2 P0004 T00400035
KF00 151635Z AUTO 35011G17KT 5SM RA BR OVC009 04/03 A3030 RMK AO2 P0002 T00390034
KF00 151615Z AUTO 36014G20KT 10SM RA OVC009 04/03 A3029 RMK AO2 T00400034
KF00 151555Z AUTO 35010G20KT 10SM OVC011 04/03 A3031 RMK AO2 T00420034
KF00 151535Z AUTO 35013G20KT 10SM -RA OVC011 04/03 A3031 RMK AO2 T00390033
KF00 151515Z AUTO 36013G18KT 10SM -RA OVC009 04/03 A3028 RMK AO2 T00390034
KF00 151455Z AUTO 34011G17KT 310V010 10SM -RA OVC009 04/03 A3029 RMK AO2 P0007 T00390035 60026
KF00 151435Z AUTO 34013G22KT 7SM RA OVC009 04/04 A3029 RMK AO2 P0006 T00400036
KF00 151415Z AUTO 36009G20KT 330V030 7SM RA BR OVC009 04/04 A3027 RMK AO2 P0004 T00400037
KF00 151355Z AUTO 35014G19KT 7SM RA OVC009 04/04 A3027 RMK AO2 P0010 T00400037
KF00 151335Z AUTO 35012G18KT 10SM -RA BKN009 BKN013 OVC025 04/04 A3026 RMK AO2 P0009 T00390037
KF00 151315Z AUTO 36010G16KT 1 3/4SM UP BR OVC007 04/04 A3024 RMK AO2 P0006 T00390036
KF00 151255Z AUTO 35008G17KT 2SM UP BR OVC009 04/04 A3024 RMK AO2 P0008 T00390036
KF00 151235Z AUTO 36014G20KT 3SM UP BR OVC008 04/04 A3023 RMK AO2 P0003 T00400036
KF00 151215Z AUTO 35008G20KT 3SM UP BR OVC008 04/04 A3022 RMK AO2 VIS 2V3 1/2 P0002 T00410037
KF00 151155Z AUTO 36013G21KT 1 3/4SM UP BR OVC010 04/04 A3019 RMK AO2 P0015 T00400036 10082 20040 60045 70045
KF00 151135Z AUTO 35012G21KT 3SM UP BR OVC008 04/04 A3018 RMK AO2 P0010 T00400037
KF00 151115Z AUTO 35012G19KT 330V030 2 1/2SM UP BR BKN008 OVC014 04/04 A3019 RMK AO2 P0007 T00400036
KF00 151055Z AUTO 34013G18KT 5SM RA BR OVC011 04/04 A3019 RMK AO2 P0002 T00430038
KF00 151035Z AUTO 34011G21KT 10SM -RA OVC011 04/04 A3019 RMK AO2 LTG DSNT SE P0001 T00430038
KF00 151015Z AUTO 34009G23KT 310V010 10SM -RA OVC011 04/04 A3019 RMK AO2 T00430038
KF00 150955Z AUTO 35015G24KT 10SM -RA BKN011 OVC043 04/04 A3015 RMK AO2 LTG DSNT E AND S P0002 T00430037
KF00 150935Z AUTO 36013G22KT 10SM RA BKN008 BKN014 OVC043 05/04 A3015 RMK AO2 LTG DSNT S P0001 T00480042
KF00 150915Z AUTO 34013G19KT 10SM -RA BKN008 BKN011 OVC045 05/05 A3016 RMK AO2 LTG DSNT N T00520048
KF00 150855Z AUTO 36011G19KT 4SM UP BR SCT011 BKN024 OVC047 05/05 A3015 RMK AO2 LTG DSNT NE P0026 T00520048 60026
KF00 150835Z AUTO 35015G20KT 3/4SM -SN BR OVC013 05/05 A3014 RMK AO2 LTG DSNT SW THRU NE P0022 T00550048
KF00 150815Z AUTO 35011G26KT 10SM -VCTSRA OVC013 06/05 A3016 RMK AO2 LTG DSNT SE THRU W T00590046
KF00 150755Z AUTO 34016G24KT 10SM -RA OVC009 06/05 A3014 RMK AO2 LTG DSNT SW T00630053
KF00 150735Z AUTO 35012G21KT 10SM BKN009 BKN014 OVC021 07/06 A3013 RMK AO2 T00670056
KF00 150715Z AUTO 34014G21KT 10SM OVC009 07/06 A3012 RMK AO2 LTG DSNT SW T00690061
KF00 150655Z AUTO 36012G17KT 7SM BKN010 BKN014 OVC022 07/07 A3011 RMK AO2 LTG DSNT SE T00740066
KF00 150635Z AUTO 35013G22KT 4SM -DZ BR BKN010 OVC020 08/07 A3011 RMK AO2 LTG DSNT SW T00760067
KF00 150615Z AUTO 35011G20KT 7SM -RA BR OVC010 08/07 A3011 RMK AO2 LTG DSNT E T00810072
KF00 150555Z AUTO 35013G21KT 10SM OVC008 08/07 A3010 RMK AO2 LTG DSNT SW T00820072 10164 20081 402190081
KF00 150535Z AUTO 36011G19KT 7SM OVC008 09/08 A3011 RMK AO2 T00850080
KF00 150515Z AUTO 34015G24KT 7SM OVC008 09/08 A3010 RMK AO2 T00890083
KF00 150455Z AUTO 35012G22KT 3SM -RA BR OVC006 09/09 A3009 RMK AO2 T00940089
KF00 150435Z AUTO 35012G24KT 5SM BR OVC008 10/09 A3009 RMK AO2 T01000093
KF00 150415Z AUTO 34013G21KT 4SM BR OVC006 11/10 A3008 RMK AO2 LTG DSNT SE T01060101
KF00 150355Z AUTO 34011G18KT 4SM -RA BR OVC006 11/11 A3008 RMK AO2 LTG DSNT SE T01130108
KF00 150335Z AUTO 35015G24KT 10SM -RA OVC008 12/11 A3005 RMK AO2 LTG DSNT E T01200112
KF00 150315Z AUTO 35015G21KT 10SM -RA BKN008 OVC013 14/12 A3002 RMK AO2 LTG DSNT S T01370120
KF00 150255Z AUTO 36010G17KT 10SM -RA OVC013 16/14 A3001 RMK AO2 T01560141
KF00 150235Z AUTO 36006G17KT 10SM BKN013 OVC023 16/14 A3002 RMK AO2 T01580142
KF00 150215Z AUTO 36010KT 10SM SCT013 OVC023 16/14 A2999 RMK AO2 LTG DSNT S T01570142
KF00 150155Z AUTO 36010G14KT 10SM SCT011 OVC021 16/14 A2997 RMK AO2 LTG DSNT SE AND S T01570143
KF00 150135Z AUTO 35009G19KT 10SM SCT011 OVC021 16/14 A2997 RMK AO2 T01580144
KF00 150115Z AUTO 36011KT 10SM SCT009 OVC021 16/15 A2997 RMK AO2 T01590147
KF00 150055Z AUTO 35009KT 10SM BKN009 OVC019 16/15 A2997 RMK AO2 T01600150
KF00 150035Z AUTO 35010KT 10SM BKN007 OVC019 16/15 A2995 RMK AO2 T01610154
KF00 150015Z AUTO 35009KT 10SM SCT007 OVC019 16/15 A2994 RMK AO2 T01620154
KF00 142355Z AUTO 36007KT 10SM SCT007 OVC017 16/16 A2993 RMK AO2 T01640156 10219 20164
KF00 142335Z AUTO 01005KT 10SM BKN007 OVC017 17/16 A2993 RMK AO2 T01660159
KF00 142315Z AUTO 35005KT 10SM BKN007 OVC017 17/16 A2993 RMK AO2 T01670159
KF00 142255Z AUTO 35006KT 10SM BKN007 OVC015 17/16 A2992 RMK AO2 T01680160
KF00 142235Z AUTO 01008KT 10SM SCT007 OVC013 17/16 A2991 RMK AO2 T01680160
KF00 142215Z AUTO 36006G15KT 10SM BKN005 OVC011 17/16 A2991 RMK AO2 T01660159
KF00 142155Z AUTO 35010G17KT 7SM OVC007 17/17 A2990 RMK AO2 T01740165
KF00 142135Z AUTO 35009G15KT 10SM OVC007 18/17 A2990 RMK AO2 T01790166
KF00 142115Z AUTO 35006G16KT 10SM BKN009 OVC013 19/17 A2989 RMK AO2 T01870171
KF00 142055Z AUTO 35010KT 10SM OVC013 20/18 A2988 RMK AO2 T01980177
KF00 142035Z AUTO 35005KT 10SM OVC015 21/18 A2987 RMK AO2 T02090183
KF00 142015Z AUTO 00000KT 10SM OVC015 21/18 A2986 RMK AO2 T02130184
KF00 141955Z AUTO 03004KT 10SM OVC013 21/18 A2986 RMK AO2 T02140183
KF00 141935Z AUTO 00000KT 10SM OVC013 21/18 A2986 RMK AO2 LTG DSNT NW T02130181
KF00 141915Z AUTO 00000KT 10SM OVC013 21/18 A2986 RMK AO2 LTG DSNT NW T02090178
KF00 141855Z AUTO 23003KT 10SM OVC013 21/18 A2988 RMK AO2 T02080175
KF00 141835Z AUTO 00000KT 10SM OVC013 21/17 A2988 RMK AO2 T02050171
KF00 141815Z AUTO 18003KT 10SM OVC011 20/17 A2988 RMK AO2 T01960168
KF00 141755Z AUTO 00000KT 10SM OVC011 19/16 A2990 RMK AO2 T01920165 10194 20136
KF00 141735Z AUTO 00000KT 10SM OVC009 18/16 A2989 RMK AO2 T01840162
KF00 141715Z AUTO 14005KT 10SM OVC009 18/16 A2990 RMK AO2 T01800158
KF00 141655Z AUTO 11004KT 10SM OVC009 18/16 A2991 RMK AO2 T01800156
KF00 141635Z AUTO 00000KT 10SM OVC007 18/16 A2991 RMK AO2 T01750157
KF00 141615Z AUTO 00000KT 10SM OVC007 17/15 A2991 RMK AO2 T01660153
KF00 141555Z AUTO 12003KT 10SM OVC007 16/15 A2991 RMK AO2 T01640153
KF00 141535Z AUTO 00000KT 10SM OVC005 15/15 A2991 RMK AO2 T01530148
KF00 141515Z AUTO 14003KT 10SM OVC005 15/14 A2991 RMK AO2 T01490145
KF00 141455Z AUTO 10004KT 10SM OVC005 15/14 A2991 RMK AO2 T01480143
KF00 141435Z AUTO 11004KT 10SM OVC003 15/15 A2990 RMK AO2 T01470145
KF00 141415Z AUTO 00000KT 10SM OVC003 14/14 A2990 RMK AO2 T01410139
KF00 141355Z AUTO 00000KT 10SM OVC003 14/14 A2989 RMK AO2 T01410139
KF00 141335Z AUTO 00000KT 10SM OVC005 14/14 A2989 RMK AO2 T01400138
KF00 141315Z AUTO 00000KT 10SM OVC005 14/14 A2988 RMK AO2 T01370135
KF00 141255Z AUTO 22003KT 10SM OVC005 14/14 A2987 RMK AO2 T01380136
KF00 141235Z AUTO 00000KT 4SM BR OVC005 14/14 A2987 RMK AO2 T01380136
KF00 141215Z AUTO 00000KT 10SM OVC005 14/14 A2987 RMK AO2 T01370135
KF00 141155Z AUTO 27003KT 10SM OVC005 14/14 A2986 RMK AO2 T01370137 10141 20137 70167
KF00 141135Z AUTO 00000KT 5SM BR OVC003 14/14 A2986 RMK AO2 T01380138
KF00 141115Z AUTO 00000KT 7SM OVC003 14/14 A2985 RMK AO2 T01390139
KF00 141055Z AUTO 00000KT 3 1/2SM BR OVC003 14/14 A2984 RMK AO2 T01380138
KF00 141035Z AUTO 00000KT 3SM BR OVC003 14/14 A2984 RMK AO2 LTG DSNT S T01380138
KF00 141015Z AUTO 28003KT 10SM OVC005 14/14 A2983 RMK AO2 T01380138
KF00 140955Z AUTO 00000KT 7SM OVC005 14/ A2983 RMK AO2 T0138////
KF00 140935Z AUTO 31005KT 7SM HZ BKN005 OVC009 14/ A2983 RMK AO2 LTG DSNT S T0139////
KF00 140915Z AUTO 28005KT 2SM BR OVC003 14/ A2983 RMK AO2 VIS 1 1/2V3 1/2 T0140////
KF00 140855Z AUTO 30003KT 4SM HZ OVC003 14/ A2983 RMK AO2 T0140////
KF00 140835Z AUTO 00000KT 10SM OVC003 14/ A2983 RMK AO2 T0139////
KF00 140815Z AUTO 00000KT 10SM OVC003 14/ A2983 RMK AO2 T0138////
KF00 140755Z AUTO 35003KT 10SM OVC003 14/ A2982 RMK AO2 T0138////